createdAt,value
2022-11-04T00:00:15.316Z,2.30
2022-11-04T00:01:15.279Z,1.70
2022-11-04T00:02:15.317Z,2.00
2022-11-04T00:03:15.255Z,1.60
2022-11-04T00:04:15.284Z,1.90
2022-11-04T00:05:15.233Z,3.40
2022-11-04T00:06:15.282Z,2.50
2022-11-04T00:07:16.049Z,2.40
2022-11-04T00:08:15.637Z,2.10
2022-11-04T00:09:15.298Z,2.50
2022-11-04T00:10:15.435Z,2.10
2022-11-04T00:11:15.389Z,2.80
2022-11-04T00:12:15.573Z,2.00
2022-11-04T00:13:15.496Z,3.10
2022-11-04T00:14:15.142Z,2.70
2022-11-04T00:15:15.134Z,2.20
2022-11-04T00:16:15.156Z,1.70
2022-11-04T00:17:15.125Z,2.70
2022-11-04T00:18:15.108Z,3.50
2022-11-04T00:19:15.102Z,2.70
2022-11-04T00:20:15.093Z,3.70
2022-11-04T00:21:15.127Z,2.90
2022-11-04T00:22:15.073Z,1.80
2022-11-04T00:23:15.084Z,2.90
2022-11-04T00:24:15.065Z,2.10
2022-11-04T00:25:15.049Z,4.50
2022-11-04T00:26:15.081Z,4.10
2022-11-04T00:27:15.033Z,4.50
2022-11-04T00:28:15.025Z,2.70
2022-11-04T00:29:15.017Z,2.40
2022-11-04T00:30:15.004Z,2.90
2022-11-04T00:31:15.028Z,3.20
2022-11-04T00:32:14.998Z,1.90
2022-11-04T00:33:14.984Z,3.10
2022-11-04T00:34:14.977Z,2.30
2022-11-04T00:35:14.975Z,2.70
2022-11-04T00:36:14.986Z,3.00
2022-11-04T00:37:14.956Z,3.50
2022-11-04T00:38:14.946Z,3.80
2022-11-04T00:39:14.934Z,2.60
2022-11-04T00:40:14.928Z,2.80
2022-11-04T00:41:14.945Z,3.20
2022-11-04T00:42:14.908Z,2.50
2022-11-04T00:43:14.897Z,4.60
2022-11-04T00:44:14.898Z,2.50
2022-11-04T00:45:14.882Z,2.00
2022-11-04T00:46:14.915Z,2.70
2022-11-04T00:47:14.862Z,2.10
2022-11-04T00:48:14.862Z,2.90
2022-11-04T00:49:14.854Z,3.10
2022-11-04T00:50:14.841Z,2.10
2022-11-04T00:51:14.877Z,2.10
2022-11-04T00:52:14.827Z,2.70
2022-11-04T00:53:14.818Z,2.80
2022-11-04T00:54:14.807Z,3.30
2022-11-04T00:55:14.795Z,1.80
2022-11-04T00:56:14.785Z,3.60
2022-11-04T00:57:14.813Z,3.40
2022-11-04T00:58:14.776Z,2.90
2022-11-04T00:59:14.850Z,2.90
2022-11-04T01:00:14.759Z,2.20
2022-11-04T01:01:14.823Z,1.90
2022-11-04T01:02:15.827Z,1.70
2022-11-04T01:03:14.735Z,2.50
2022-11-04T01:04:14.720Z,3.20
2022-11-04T01:05:14.716Z,1.60
2022-11-04T01:06:14.710Z,2.00
2022-11-04T01:07:14.724Z,1.60
2022-11-04T01:08:14.681Z,2.70
2022-11-04T01:09:14.679Z,2.00
2022-11-04T01:10:14.664Z,2.60
2022-11-04T01:11:14.660Z,2.40
2022-11-04T01:12:14.680Z,2.80
2022-11-04T01:13:14.649Z,1.60
2022-11-04T01:14:14.637Z,1.80
2022-11-04T01:15:14.625Z,2.20
2022-11-04T01:16:14.658Z,2.80
2022-11-04T01:17:14.648Z,1.60
2022-11-04T01:18:14.603Z,2.60
2022-11-04T01:19:14.593Z,2.10
2022-11-04T01:20:14.590Z,2.00
2022-11-04T01:21:14.579Z,2.00
2022-11-04T01:22:14.598Z,2.70
2022-11-04T01:23:14.567Z,2.50
2022-11-04T01:24:14.550Z,1.50
2022-11-04T01:25:14.548Z,2.30
2022-11-04T01:26:14.535Z,1.90
2022-11-04T01:27:14.565Z,1.60
2022-11-04T01:28:14.521Z,2.20
2022-11-04T01:29:14.509Z,2.00
2022-11-04T01:30:14.508Z,2.70
2022-11-04T01:31:14.499Z,2.90
2022-11-04T01:32:14.514Z,2.10
2022-11-04T01:33:14.485Z,0.60
2022-11-04T01:34:14.474Z,1.70
2022-11-04T01:35:14.467Z,1.00
2022-11-04T01:36:14.455Z,1.20
2022-11-04T01:37:14.475Z,1.10
2022-11-04T01:38:14.436Z,1.70
2022-11-04T01:39:14.433Z,1.90
2022-11-04T01:40:14.425Z,2.10
2022-11-04T01:41:14.412Z,1.70
2022-11-04T01:42:14.434Z,1.70
2022-11-04T01:44:32.944Z,0.80
2022-11-04T01:45:32.961Z,1.00
2022-11-04T01:46:32.962Z,1.50
2022-11-04T01:47:32.985Z,1.40
2022-11-04T01:48:32.939Z,2.40
2022-11-04T01:49:32.923Z,1.00
2022-11-04T01:50:32.921Z,1.30
2022-11-04T01:51:32.911Z,1.90
2022-11-04T01:52:32.941Z,1.40
2022-11-04T01:53:32.896Z,1.40
2022-11-04T01:54:32.887Z,2.00
2022-11-04T01:55:32.876Z,2.60
2022-11-04T01:56:32.871Z,2.30
2022-11-04T01:57:32.863Z,1.90
2022-11-04T01:58:32.883Z,1.90
2022-11-04T01:59:32.839Z,1.80
2022-11-04T02:00:32.844Z,0.70
2022-11-04T02:01:32.981Z,1.20
2022-11-04T02:02:34.073Z,1.00
2022-11-04T02:03:33.956Z,1.40
2022-11-04T02:04:33.946Z,1.10
2022-11-04T02:05:33.936Z,2.00
2022-11-04T02:06:33.929Z,1.70
2022-11-04T02:07:33.952Z,1.50
2022-11-04T02:08:33.917Z,1.50
2022-11-04T02:09:33.921Z,1.00
2022-11-04T02:10:33.910Z,1.20
2022-11-04T02:11:33.889Z,1.10
2022-11-04T02:12:33.913Z,1.00
2022-11-04T02:13:33.879Z,0.40
2022-11-04T02:14:33.872Z,1.10
2022-11-04T02:15:33.854Z,1.90
2022-11-04T02:16:33.853Z,1.20
2022-11-04T02:17:33.875Z,1.30
2022-11-04T02:18:33.829Z,0.60
2022-11-04T02:19:33.818Z,0.70
2022-11-04T02:20:33.819Z,1.50
2022-11-04T02:21:33.813Z,0.80
2022-11-04T02:22:33.846Z,1.60
2022-11-04T02:23:33.795Z,1.30
2022-11-04T02:24:33.786Z,1.40
2022-11-04T02:25:33.777Z,1.70
2022-11-04T02:26:33.784Z,1.20
2022-11-04T02:27:33.798Z,1.00
2022-11-04T02:28:33.741Z,1.60
2022-11-04T02:29:34.750Z,1.70
2022-11-04T02:30:33.734Z,0.50
2022-11-04T02:31:33.739Z,1.30
2022-11-04T02:32:33.719Z,1.70
2022-11-04T02:33:33.740Z,1.00
2022-11-04T02:34:33.703Z,1.00
2022-11-04T02:35:33.695Z,1.50
2022-11-04T02:36:33.683Z,1.30
2022-11-04T02:37:33.680Z,1.30
2022-11-04T02:38:33.702Z,1.10
2022-11-04T02:39:33.671Z,1.70
2022-11-04T02:40:33.650Z,1.60
2022-11-04T02:41:33.649Z,0.50
2022-11-04T02:42:33.640Z,1.20
2022-11-04T02:43:33.665Z,1.40
2022-11-04T02:44:33.619Z,1.60
2022-11-04T02:45:33.612Z,1.40
2022-11-04T02:46:33.626Z,1.20
2022-11-04T02:47:33.597Z,1.30
2022-11-04T02:48:33.621Z,1.60
2022-11-04T02:49:33.580Z,0.80
2022-11-04T02:50:33.583Z,0.70
2022-11-04T02:51:33.559Z,1.10
2022-11-04T02:52:33.553Z,1.60
2022-11-04T02:53:33.576Z,1.10
2022-11-04T02:54:33.539Z,1.10
2022-11-04T02:55:33.534Z,1.00
2022-11-04T02:56:33.523Z,1.30
2022-11-04T02:57:33.513Z,0.80
2022-11-04T02:58:33.528Z,1.10
2022-11-04T02:59:33.500Z,0.70
2022-11-04T03:00:33.488Z,0.80
2022-11-04T03:01:33.593Z,0.50
2022-11-04T03:02:33.555Z,1.80
2022-11-04T03:03:33.496Z,1.40
2022-11-04T03:04:33.458Z,0.80
2022-11-04T03:05:33.445Z,1.30
2022-11-04T03:06:33.437Z,1.10
2022-11-04T03:07:33.442Z,0.70
2022-11-04T03:08:33.453Z,1.00
2022-11-04T03:09:33.432Z,1.10
2022-11-04T03:10:33.421Z,1.10
2022-11-04T03:11:33.399Z,1.00
2022-11-04T03:12:33.396Z,0.60
2022-11-04T03:13:33.411Z,1.00
2022-11-04T03:14:33.372Z,0.80
2022-11-04T03:15:33.362Z,1.10
2022-11-04T03:16:33.388Z,0.80
2022-11-04T03:17:33.353Z,0.60
2022-11-04T03:18:33.374Z,0.80
2022-11-04T03:19:33.329Z,0.70
2022-11-04T03:20:33.324Z,0.90
2022-11-04T03:21:33.303Z,0.40
2022-11-04T03:22:34.302Z,0.80
2022-11-04T03:23:33.322Z,1.00
2022-11-04T03:24:33.291Z,0.50
2022-11-04T03:25:33.275Z,0.60
2022-11-04T03:26:33.276Z,0.50
2022-11-04T03:27:33.261Z,0.80
2022-11-04T03:28:33.281Z,0.60
2022-11-04T03:29:33.244Z,0.70
2022-11-04T03:30:33.231Z,0.80
2022-11-04T03:31:33.229Z,0.40
2022-11-04T03:32:33.227Z,0.70
2022-11-04T03:33:33.250Z,0.70
2022-11-04T03:34:33.212Z,0.90
2022-11-04T03:35:33.252Z,0.70
2022-11-04T03:36:33.252Z,0.90
2022-11-04T03:37:33.178Z,0.80
2022-11-04T03:38:33.191Z,0.50
2022-11-04T03:39:33.159Z,0.90
2022-11-04T03:40:33.155Z,0.20
2022-11-04T03:41:33.155Z,0.80
2022-11-04T03:42:33.134Z,0.80
2022-11-04T03:43:33.158Z,0.70
2022-11-04T03:44:33.111Z,0.80
2022-11-04T03:45:33.104Z,0.70
2022-11-04T03:46:33.099Z,0.80
2022-11-04T03:47:33.089Z,0.50
2022-11-04T03:48:33.118Z,0.50
2022-11-04T03:49:33.073Z,0.50
2022-11-04T03:50:33.067Z,0.70
2022-11-04T03:51:33.063Z,0.50
2022-11-04T03:52:33.055Z,0.40
2022-11-04T03:53:33.051Z,0.70
2022-11-04T03:54:33.066Z,0.50
2022-11-04T03:55:33.023Z,0.50
2022-11-04T03:56:33.017Z,0.40
2022-11-04T03:57:33.012Z,0.70
2022-11-04T03:58:33.030Z,0.70
2022-11-04T03:59:32.991Z,0.60
2022-11-04T04:00:32.980Z,0.30
2022-11-04T04:01:33.061Z,0.40
2022-11-04T04:02:32.995Z,0.40
2022-11-04T04:03:32.958Z,0.50
2022-11-04T04:04:32.981Z,1.40
2022-11-04T04:05:32.939Z,0.40
2022-11-04T04:06:32.930Z,0.50
2022-11-04T04:07:32.927Z,0.30
2022-11-04T04:08:32.915Z,0.50
2022-11-04T04:09:32.943Z,0.40
2022-11-04T04:10:32.897Z,0.30
2022-11-04T04:11:32.895Z,0.30
2022-11-04T04:12:32.883Z,0.40
2022-11-04T04:13:32.862Z,0.50
2022-11-04T04:14:32.888Z,0.60
2022-11-04T04:15:32.871Z,0.50
2022-11-04T04:16:32.878Z,0.70
2022-11-04T04:17:32.834Z,0.50
2022-11-04T04:18:32.827Z,0.60
2022-11-04T04:19:32.852Z,0.50
2022-11-04T04:20:32.814Z,0.50
2022-11-04T04:21:32.801Z,0.40
2022-11-04T04:22:32.799Z,0.80
2022-11-04T04:23:32.785Z,0.60
2022-11-04T04:24:32.808Z,0.30
2022-11-04T04:25:32.769Z,0.50
2022-11-04T04:26:32.757Z,0.30
2022-11-04T04:27:32.755Z,0.30
2022-11-04T04:28:32.752Z,0.30
2022-11-04T04:29:32.760Z,0.60
2022-11-04T04:30:32.722Z,0.60
2022-11-04T04:31:32.746Z,0.30
2022-11-04T04:32:32.708Z,0.30
2022-11-04T04:33:32.702Z,0.20
2022-11-04T04:34:32.723Z,0.70
2022-11-04T04:35:32.692Z,0.30
2022-11-04T04:36:32.683Z,0.40
2022-11-04T04:37:32.670Z,0.40
2022-11-04T04:38:32.662Z,0.50
2022-11-04T04:39:32.685Z,0.40
2022-11-04T04:40:32.645Z,0.50
2022-11-04T04:41:32.627Z,0.40
2022-11-04T04:42:32.624Z,0.30
2022-11-04T04:43:32.618Z,0.40
2022-11-04T04:44:32.637Z,0.50
2022-11-04T04:45:32.597Z,0.50
2022-11-04T04:46:32.595Z,0.20
2022-11-04T04:47:32.586Z,0.50
2022-11-04T04:48:32.591Z,0.50
2022-11-04T04:49:32.593Z,0.70
2022-11-04T04:50:32.556Z,0.30
2022-11-04T04:51:32.554Z,0.50
2022-11-04T04:52:32.542Z,0.30
2022-11-04T04:53:32.524Z,0.40
2022-11-04T04:54:32.556Z,0.30
2022-11-04T04:55:35.169Z,0.50
2022-11-04T04:56:32.507Z,0.10
2022-11-04T04:57:32.497Z,0.40
2022-11-04T04:58:32.482Z,0.20
2022-11-04T04:59:32.509Z,0.60
2022-11-04T05:00:32.472Z,0.30
2022-11-04T05:01:32.684Z,0.20
2022-11-04T05:02:32.573Z,0.40
2022-11-04T05:03:32.451Z,0.40
2022-11-04T05:04:32.469Z,0.30
2022-11-04T05:05:32.433Z,0.80
2022-11-04T05:06:32.423Z,0.20
2022-11-04T05:07:32.407Z,0.60
2022-11-04T05:08:32.401Z,1.50
2022-11-04T05:09:32.423Z,0.50
2022-11-04T05:10:32.388Z,0.50
2022-11-04T05:11:32.381Z,0.30
2022-11-04T05:12:32.383Z,0.40
2022-11-04T05:13:32.368Z,0.40
2022-11-04T05:14:32.387Z,0.30
2022-11-04T05:15:32.353Z,0.20
2022-11-04T05:16:36.608Z,0.60
2022-11-04T05:17:33.335Z,0.30
2022-11-04T05:18:32.324Z,0.30
2022-11-04T05:19:32.346Z,1.30
2022-11-04T05:20:32.309Z,0.70
2022-11-04T05:21:32.302Z,0.20
2022-11-04T05:22:32.294Z,0.50
2022-11-04T05:23:32.277Z,0.30
2022-11-04T05:24:32.304Z,0.30
2022-11-04T05:25:32.276Z,0.40
2022-11-04T05:26:32.252Z,0.40
2022-11-04T05:27:32.252Z,0.10
2022-11-04T05:28:32.239Z,0.20
2022-11-04T05:29:32.258Z,0.50
2022-11-04T05:30:32.221Z,0.40
2022-11-04T05:31:32.210Z,0.50
2022-11-04T05:32:32.204Z,0.30
2022-11-04T05:33:32.200Z,0.40
2022-11-04T05:34:32.217Z,0.30
2022-11-04T05:35:32.190Z,0.40
2022-11-04T05:36:32.175Z,0.20
2022-11-04T05:37:32.167Z,0.50
2022-11-04T05:38:32.151Z,0.60
2022-11-04T05:39:32.177Z,0.50
2022-11-04T05:40:32.130Z,0.50
2022-11-04T05:41:33.133Z,0.80
2022-11-04T05:42:32.120Z,0.20
2022-11-04T05:43:32.107Z,0.50
2022-11-04T05:44:32.315Z,0.30
2022-11-04T05:45:32.086Z,0.50
2022-11-04T05:46:32.085Z,0.70
2022-11-04T05:47:32.084Z,1.80
2022-11-04T05:48:36.368Z,0.70
2022-11-04T05:49:33.095Z,0.30
2022-11-04T05:50:32.053Z,0.50
2022-11-04T05:51:32.037Z,0.40
2022-11-04T05:52:32.065Z,0.40
2022-11-04T05:53:32.026Z,0.60
2022-11-04T05:54:32.076Z,0.50
2022-11-04T05:55:32.009Z,0.40
2022-11-04T05:56:32.001Z,0.60
2022-11-04T05:57:31.990Z,0.60
2022-11-04T05:58:31.981Z,0.70
2022-11-04T05:59:32.010Z,0.40
2022-11-04T06:00:31.964Z,0.60
2022-11-04T06:01:32.026Z,0.50
2022-11-04T06:02:32.051Z,0.80
2022-11-04T06:03:32.000Z,0.60
2022-11-04T06:04:31.967Z,0.70
2022-11-04T06:05:31.919Z,0.50
2022-11-04T06:06:31.915Z,0.80
2022-11-04T06:07:31.904Z,0.70
2022-11-04T06:08:31.895Z,0.50
2022-11-04T06:09:31.914Z,0.80
2022-11-04T06:10:31.880Z,0.90
2022-11-04T06:11:31.866Z,0.50
2022-11-04T06:12:31.867Z,1.20
2022-11-04T06:13:31.859Z,0.50
2022-11-04T06:14:31.879Z,0.30
2022-11-04T06:15:31.832Z,0.70
2022-11-04T06:16:31.827Z,0.40
2022-11-04T06:17:31.821Z,0.50
2022-11-04T06:18:31.819Z,0.60
2022-11-04T06:19:31.830Z,0.50
2022-11-04T06:20:31.804Z,0.60
2022-11-04T06:21:31.794Z,0.10
2022-11-04T06:22:31.784Z,0.50
2022-11-04T06:23:31.777Z,0.60
2022-11-04T06:24:31.799Z,0.60
2022-11-04T06:25:31.757Z,0.70
2022-11-04T06:26:31.750Z,0.60
2022-11-04T06:27:31.765Z,0.60
2022-11-04T06:28:31.726Z,0.70
2022-11-04T06:29:31.751Z,0.20
2022-11-04T06:30:31.710Z,0.40
2022-11-04T06:31:31.700Z,0.90
2022-11-04T06:32:31.686Z,0.50
2022-11-04T06:33:36.505Z,0.30
2022-11-04T06:34:33.709Z,0.70
2022-11-04T06:35:31.661Z,0.70
2022-11-04T06:36:31.664Z,0.50
2022-11-04T06:37:31.653Z,0.40
2022-11-04T06:38:31.634Z,0.40
2022-11-04T06:39:31.670Z,0.50
2022-11-04T06:40:31.618Z,0.60
2022-11-04T06:41:31.617Z,0.40
2022-11-04T06:42:31.606Z,0.60
2022-11-04T06:43:31.602Z,0.70
2022-11-04T06:44:31.582Z,0.50
2022-11-04T06:45:31.613Z,0.60
2022-11-04T06:46:31.581Z,0.40
2022-11-04T06:47:31.562Z,0.60
2022-11-04T06:48:31.562Z,0.80
2022-11-04T06:49:31.551Z,0.90
2022-11-04T06:50:31.576Z,1.80
2022-11-04T06:51:31.529Z,4.40
2022-11-04T06:52:31.527Z,2.10
2022-11-04T06:53:31.522Z,1.80
2022-11-04T06:54:32.506Z,1.70
2022-11-04T06:55:31.532Z,2.40
2022-11-04T06:56:31.494Z,5.60
2022-11-04T06:57:31.479Z,2.70
2022-11-04T06:58:31.470Z,2.30
2022-11-04T06:59:31.461Z,0.80
2022-11-04T07:00:31.480Z,0.70
2022-11-04T07:01:31.588Z,0.60
2022-11-04T07:02:31.482Z,0.60
2022-11-04T07:03:31.425Z,1.40
2022-11-04T07:04:31.419Z,1.40
2022-11-04T07:05:31.543Z,2.90
2022-11-04T07:06:31.397Z,2.20
2022-11-04T07:07:31.388Z,2.40
2022-11-04T07:08:31.373Z,1.80
2022-11-04T07:09:31.370Z,1.60
2022-11-04T07:10:31.389Z,1.70
2022-11-04T07:11:31.349Z,1.20
2022-11-04T07:12:31.370Z,1.20
2022-11-04T07:13:31.335Z,2.20
2022-11-04T07:14:31.330Z,3.10
2022-11-04T07:15:31.356Z,4.40
2022-11-04T07:16:31.315Z,8.10
2022-11-04T07:17:31.302Z,4.80
2022-11-04T07:18:31.292Z,4.10
2022-11-04T07:19:31.284Z,2.90
2022-11-04T07:20:31.315Z,3.70
2022-11-04T07:21:31.283Z,3.80
2022-11-04T07:22:31.266Z,3.90
2022-11-04T07:23:31.258Z,3.10
2022-11-04T07:24:31.247Z,3.20
2022-11-04T07:25:31.271Z,3.00
2022-11-04T07:26:31.229Z,3.10
2022-11-04T07:27:31.221Z,2.80
2022-11-04T07:28:31.215Z,3.40
2022-11-04T07:29:31.204Z,2.50
2022-11-04T07:30:31.222Z,2.20
2022-11-04T07:31:31.188Z,2.20
2022-11-04T07:32:31.185Z,1.40
2022-11-04T07:33:31.165Z,1.30
2022-11-04T07:34:31.164Z,1.60
2022-11-04T07:35:31.196Z,1.60
2022-11-04T07:36:31.153Z,1.30
2022-11-04T07:37:31.141Z,0.90
2022-11-04T07:38:31.133Z,1.40
2022-11-04T07:39:31.125Z,1.40
2022-11-04T07:40:31.140Z,1.70
2022-11-04T07:41:31.100Z,1.20
2022-11-04T07:42:31.093Z,1.00
2022-11-04T07:43:31.251Z,1.00
2022-11-04T07:44:31.072Z,1.00
2022-11-04T07:45:35.171Z,1.20
2022-11-04T07:46:31.049Z,1.10
2022-11-04T07:47:31.042Z,1.00
2022-11-04T07:48:31.115Z,1.10
2022-11-04T07:49:31.095Z,1.40
2022-11-04T07:50:31.117Z,1.90
2022-11-04T07:51:31.012Z,2.00
2022-11-04T07:52:31.000Z,1.70
2022-11-04T07:53:30.990Z,1.30
2022-11-04T07:54:30.990Z,1.40
2022-11-04T07:55:31.039Z,1.20
2022-11-04T07:56:30.973Z,1.20
2022-11-04T07:57:30.964Z,1.10
2022-11-04T07:58:30.953Z,1.10
2022-11-04T07:59:30.946Z,1.10
2022-11-04T08:00:31.042Z,1.20
2022-11-04T08:01:30.956Z,0.80
2022-11-04T08:02:35.063Z,0.90
2022-11-04T08:03:32.025Z,1.40
2022-11-04T08:04:30.908Z,1.30
2022-11-04T08:05:30.922Z,1.20
2022-11-04T08:06:30.886Z,1.50
2022-11-04T08:07:30.898Z,1.90
2022-11-04T08:08:30.921Z,1.80
2022-11-04T08:09:30.866Z,1.50
2022-11-04T08:10:30.881Z,1.30
2022-11-04T08:11:30.847Z,1.80
2022-11-04T08:12:31.839Z,1.70
2022-11-04T08:13:30.826Z,1.40
2022-11-04T08:14:30.818Z,1.20
2022-11-04T08:15:30.841Z,1.30
2022-11-04T08:16:34.277Z,1.50
2022-11-04T08:17:31.797Z,1.50
2022-11-04T08:18:30.799Z,1.30
2022-11-04T08:19:30.780Z,1.20
2022-11-04T08:20:30.959Z,1.50
2022-11-04T08:21:30.761Z,1.40
2022-11-04T08:22:33.094Z,1.50
2022-11-04T08:23:31.752Z,1.40
2022-11-04T08:24:30.743Z,1.70
2022-11-04T08:25:30.761Z,1.80
2022-11-04T08:26:30.722Z,2.00
2022-11-04T08:27:30.711Z,1.90
2022-11-04T08:28:30.704Z,2.00
2022-11-04T08:29:30.702Z,1.30
2022-11-04T08:30:30.715Z,1.30
2022-11-04T08:31:30.677Z,1.30
2022-11-04T08:32:30.685Z,2.10
2022-11-04T08:33:30.662Z,2.60
2022-11-04T08:34:30.651Z,3.60
2022-11-04T08:35:30.673Z,3.60
2022-11-04T08:36:30.629Z,2.90
2022-11-04T08:37:30.629Z,2.00
2022-11-04T08:38:30.642Z,1.70
2022-11-04T08:39:30.605Z,1.30
2022-11-04T08:40:30.642Z,1.10
2022-11-04T08:41:30.590Z,1.30
2022-11-04T08:42:30.575Z,1.70
2022-11-04T08:43:30.573Z,0.90
2022-11-04T08:44:30.564Z,1.00
2022-11-04T08:45:33.640Z,1.40
2022-11-04T08:46:31.549Z,1.10
2022-11-04T08:47:30.542Z,1.00
2022-11-04T08:48:30.532Z,0.90
2022-11-04T08:49:30.536Z,1.30
2022-11-04T08:50:30.547Z,0.90
2022-11-04T08:51:30.509Z,1.20
2022-11-04T08:52:30.497Z,1.10
2022-11-04T08:53:30.484Z,1.30
2022-11-04T08:54:30.475Z,1.10
2022-11-04T08:55:30.498Z,0.90
2022-11-04T08:56:30.469Z,1.10
2022-11-04T08:57:30.450Z,0.90
2022-11-04T08:58:31.444Z,1.10
2022-11-04T08:59:30.482Z,0.80
2022-11-04T09:00:30.463Z,1.10
2022-11-04T09:01:35.476Z,0.80
2022-11-04T09:02:32.417Z,1.00
2022-11-04T09:03:30.444Z,0.90
2022-11-04T09:04:30.393Z,1.30
2022-11-04T09:05:30.422Z,0.90
2022-11-04T09:06:30.382Z,0.90
2022-11-04T09:07:30.374Z,0.90
2022-11-04T09:08:30.367Z,1.10
2022-11-04T09:09:30.352Z,0.50
2022-11-04T09:10:30.342Z,0.70
2022-11-04T09:11:30.358Z,0.90
2022-11-04T09:12:30.324Z,0.70
2022-11-04T09:13:32.414Z,0.80
2022-11-04T09:14:30.327Z,0.80
2022-11-04T09:15:30.299Z,0.90
2022-11-04T09:16:30.326Z,0.90
2022-11-04T09:17:30.360Z,0.60
2022-11-04T09:18:30.272Z,1.50
2022-11-04T09:19:30.272Z,0.80
2022-11-04T09:20:30.255Z,0.80
2022-11-04T09:21:30.278Z,0.80
2022-11-04T09:22:30.240Z,1.30
2022-11-04T09:23:30.233Z,1.10
2022-11-04T09:24:30.228Z,0.80
2022-11-04T09:25:30.222Z,0.50
2022-11-04T09:26:30.254Z,0.90
2022-11-04T09:27:30.196Z,1.30
2022-11-04T09:28:30.190Z,0.90
2022-11-04T09:29:30.182Z,0.90
2022-11-04T09:30:30.176Z,1.20
2022-11-04T09:31:30.206Z,0.80
2022-11-04T09:32:30.153Z,0.60
2022-11-04T09:33:30.207Z,1.70
2022-11-04T09:34:30.148Z,1.20
2022-11-04T09:35:30.131Z,0.70
2022-11-04T09:36:30.160Z,0.80
2022-11-04T09:37:30.129Z,0.90
2022-11-04T09:38:30.110Z,0.80
2022-11-04T09:39:30.094Z,0.80
2022-11-04T09:40:30.088Z,0.70
2022-11-04T09:41:30.104Z,1.00
2022-11-04T09:42:30.064Z,0.90
2022-11-04T09:43:30.066Z,1.10
2022-11-04T09:44:30.055Z,0.90
2022-11-04T09:45:30.038Z,0.90
2022-11-04T09:46:30.238Z,0.90
2022-11-04T09:47:30.039Z,1.00
2022-11-04T09:48:30.018Z,1.10
2022-11-04T09:49:30.196Z,1.30
2022-11-04T09:50:30.031Z,1.00
2022-11-04T09:51:53.306Z,1.10
2022-11-04T09:52:31.978Z,1.10
2022-11-04T09:53:29.973Z,0.90
2022-11-04T09:54:29.969Z,0.80
2022-11-04T09:55:29.983Z,1.00
2022-11-04T09:56:29.945Z,0.80
2022-11-04T09:57:29.993Z,1.00
2022-11-04T09:58:29.927Z,0.90
2022-11-04T09:59:29.931Z,0.70
2022-11-04T10:00:29.939Z,1.00
2022-11-04T10:01:30.083Z,0.80
2022-11-04T10:02:29.968Z,1.00
2022-11-04T10:03:29.886Z,1.20
2022-11-04T10:04:29.878Z,0.80
2022-11-04T10:05:29.987Z,1.10
2022-11-04T10:06:29.854Z,1.00
2022-11-04T10:07:29.868Z,1.30
2022-11-04T10:08:32.730Z,1.10
2022-11-04T10:09:31.838Z,0.80
2022-11-04T10:10:29.861Z,0.80
2022-11-04T10:11:29.824Z,0.90
2022-11-04T10:12:29.820Z,0.90
2022-11-04T10:13:29.803Z,1.10
2022-11-04T10:14:35.167Z,0.90
2022-11-04T10:15:31.809Z,1.20
2022-11-04T10:16:30.778Z,1.10
2022-11-04T10:17:29.769Z,0.70
2022-11-04T10:18:29.759Z,1.50
2022-11-04T10:19:29.747Z,1.00
2022-11-04T10:20:29.738Z,1.10
2022-11-04T10:21:29.869Z,0.90
2022-11-04T10:22:29.717Z,0.90
2022-11-04T10:23:29.712Z,0.90
2022-11-04T10:24:29.702Z,0.90
2022-11-04T10:25:29.690Z,1.00
2022-11-04T10:26:29.714Z,0.90
2022-11-04T10:27:29.677Z,1.00
2022-11-04T10:28:29.666Z,1.00
2022-11-04T10:29:29.655Z,1.10
2022-11-04T10:30:29.647Z,0.90
2022-11-04T10:31:29.687Z,0.70
2022-11-04T10:32:29.634Z,1.10
2022-11-04T10:33:29.625Z,1.00
2022-11-04T10:34:29.614Z,0.60
2022-11-04T10:35:29.612Z,1.00
2022-11-04T10:36:29.688Z,1.10
2022-11-04T10:37:29.655Z,1.10
2022-11-04T10:38:29.583Z,0.80
2022-11-04T10:39:29.577Z,1.10
2022-11-04T10:40:29.572Z,0.80
2022-11-04T10:41:29.726Z,0.90
2022-11-04T10:42:29.567Z,0.90
2022-11-04T10:43:29.551Z,0.80
2022-11-04T10:44:29.542Z,0.80
2022-11-04T10:45:29.531Z,1.10
2022-11-04T10:46:32.145Z,0.90
2022-11-04T10:47:30.517Z,0.70
2022-11-04T10:48:29.507Z,0.90
2022-11-04T10:49:29.497Z,1.00
2022-11-04T10:50:30.775Z,1.00
2022-11-04T10:51:30.524Z,1.10
2022-11-04T10:52:29.467Z,0.90
2022-11-04T10:53:29.463Z,1.00
2022-11-04T10:54:29.461Z,0.90
2022-11-04T10:55:29.443Z,1.30
2022-11-04T10:56:29.515Z,0.90
2022-11-04T10:57:29.427Z,1.10
2022-11-04T10:58:29.422Z,0.70
2022-11-04T10:59:29.408Z,0.90
2022-11-04T11:00:29.458Z,1.80
2022-11-04T11:01:29.612Z,1.00
2022-11-04T11:02:29.414Z,1.40
2022-11-04T11:03:30.390Z,1.00
2022-11-04T11:04:29.368Z,0.90
2022-11-04T11:05:29.356Z,1.70
2022-11-04T11:06:29.392Z,1.10
2022-11-04T11:07:29.352Z,0.90
2022-11-04T11:08:29.343Z,1.20
2022-11-04T11:09:29.342Z,2.30
2022-11-04T11:10:29.317Z,1.40
2022-11-04T11:11:29.489Z,1.00
2022-11-04T11:12:50.010Z,1.80
2022-11-04T11:13:31.291Z,2.10
2022-11-04T11:14:29.299Z,1.10
2022-11-04T11:15:29.278Z,1.50
2022-11-04T11:16:29.306Z,1.80
2022-11-04T11:17:29.254Z,1.60
2022-11-04T11:18:29.253Z,1.90
2022-11-04T11:19:29.244Z,1.80
2022-11-04T11:20:29.227Z,1.40
2022-11-04T11:21:29.230Z,1.60
2022-11-04T11:22:29.248Z,1.00
2022-11-04T11:23:29.208Z,1.30
2022-11-04T11:24:29.213Z,0.80
2022-11-04T11:25:29.201Z,0.70
2022-11-04T11:26:29.188Z,0.80
2022-11-04T11:27:29.222Z,1.30
2022-11-04T11:28:29.163Z,0.90
2022-11-04T11:29:29.153Z,0.70
2022-11-04T11:30:29.153Z,1.10
2022-11-04T11:31:29.136Z,1.00
2022-11-04T11:32:29.154Z,1.00
2022-11-04T11:33:29.121Z,0.40
2022-11-04T11:34:29.107Z,0.80
2022-11-04T11:35:29.106Z,1.00
2022-11-04T11:36:29.096Z,1.10
2022-11-04T11:37:29.104Z,1.10
2022-11-04T11:38:29.080Z,1.00
2022-11-04T11:39:29.085Z,0.80
2022-11-04T11:40:29.054Z,1.10
2022-11-04T11:41:29.077Z,1.10
2022-11-04T11:42:29.080Z,1.40
2022-11-04T11:43:29.072Z,0.80
2022-11-04T11:44:29.040Z,0.90
2022-11-04T11:45:29.039Z,1.00
2022-11-04T11:46:29.012Z,1.10
2022-11-04T11:47:29.225Z,1.00
2022-11-04T11:48:28.995Z,1.10
2022-11-04T11:49:29.991Z,0.90
2022-11-04T11:50:28.982Z,1.30
2022-11-04T11:51:32.073Z,1.10
2022-11-04T11:52:29.957Z,1.40
2022-11-04T11:53:28.999Z,1.30
2022-11-04T11:54:28.940Z,1.00
2022-11-04T11:55:28.944Z,0.90
2022-11-04T11:56:45.637Z,1.30
2022-11-04T11:57:30.915Z,0.80
2022-11-04T12:00:38.963Z,0.80
2022-11-04T12:01:31.001Z,0.90
2022-11-04T12:02:28.984Z,0.80
2022-11-04T12:03:29.087Z,0.70
2022-11-04T12:06:30.914Z,0.50
2022-11-04T12:09:34.434Z,0.90
2022-11-04T12:10:49.773Z,0.80
2022-11-04T12:11:30.818Z,0.60
2022-11-04T12:12:28.836Z,1.00
2022-11-04T12:13:29.049Z,1.20
2022-11-04T12:14:28.787Z,0.90
2022-11-04T12:15:28.769Z,0.70
2022-11-04T12:16:28.762Z,1.00
2022-11-04T12:17:28.781Z,1.00
2022-11-04T12:18:28.745Z,0.90
2022-11-04T12:19:28.735Z,0.90
2022-11-04T12:20:28.735Z,0.80
2022-11-04T12:21:28.725Z,1.00
2022-11-04T12:22:28.740Z,0.70
2022-11-04T12:23:28.762Z,0.60
2022-11-04T12:24:28.690Z,1.00
2022-11-04T12:25:28.695Z,1.00
2022-11-04T12:26:28.680Z,1.20
2022-11-04T12:27:28.701Z,0.90
2022-11-04T12:28:28.684Z,0.70
2022-11-04T12:29:28.651Z,0.90
2022-11-04T12:30:34.034Z,1.10
2022-11-04T12:31:30.630Z,0.60
2022-11-04T12:32:28.669Z,1.00
2022-11-04T12:33:28.625Z,0.90
2022-11-04T12:34:28.609Z,0.80
2022-11-04T12:35:28.598Z,0.70
2022-11-04T12:36:28.596Z,0.60
2022-11-04T12:37:28.622Z,0.80
2022-11-04T12:38:28.578Z,0.70
2022-11-04T12:39:28.567Z,0.60
2022-11-04T12:40:28.561Z,0.80
2022-11-04T12:41:52.777Z,0.70
2022-11-04T12:42:33.017Z,0.70
2022-11-04T12:43:29.532Z,0.70
2022-11-04T12:44:28.520Z,0.90
2022-11-04T12:45:28.511Z,0.90
2022-11-04T12:46:28.520Z,1.10
2022-11-04T12:47:28.535Z,0.70
2022-11-04T12:48:28.497Z,0.80
2022-11-04T12:49:28.482Z,0.90
2022-11-04T12:50:28.480Z,0.90
2022-11-04T12:51:28.467Z,0.60
2022-11-04T12:52:28.459Z,0.50
2022-11-04T12:53:28.479Z,0.90
2022-11-04T12:54:28.447Z,0.80
2022-11-04T12:55:28.431Z,0.60
2022-11-04T12:56:28.426Z,0.80
2022-11-04T12:57:28.418Z,1.00
2022-11-04T12:58:28.447Z,0.60
2022-11-04T12:59:28.395Z,0.70
2022-11-04T13:00:29.391Z,0.30
2022-11-04T13:01:28.457Z,0.70
2022-11-04T13:02:29.504Z,0.70
2022-11-04T13:03:28.411Z,0.80
2022-11-04T13:04:28.354Z,0.50
2022-11-04T13:05:28.349Z,1.10
2022-11-04T13:06:28.337Z,1.00
2022-11-04T13:07:28.335Z,0.60
2022-11-04T13:08:28.345Z,0.60
2022-11-04T13:09:28.318Z,0.90
2022-11-04T13:10:28.305Z,0.50
2022-11-04T13:11:28.297Z,0.70
2022-11-04T13:12:28.299Z,0.40
2022-11-04T13:13:28.341Z,0.60
2022-11-04T13:14:28.255Z,0.80
2022-11-04T13:15:29.263Z,0.80
2022-11-04T13:16:28.248Z,0.80
2022-11-04T13:17:28.243Z,1.00
2022-11-04T13:18:28.260Z,1.20
2022-11-04T13:19:28.223Z,0.90
2022-11-04T13:20:28.214Z,0.80
2022-11-04T13:21:28.212Z,1.70
2022-11-04T13:22:29.222Z,0.80
2022-11-04T13:23:28.221Z,1.10
2022-11-04T13:24:28.184Z,0.90
2022-11-04T13:25:28.181Z,0.90